sensor_id;sensor_type;location;lat;lon;timestamp;P1;durP1;ratioP1;P2;durP2;ratioP2
48835;SDS011;62581;47.342;7.908;2022-12-07T00:01:26;38.35;;;20.40;;
48835;SDS011;62581;47.342;7.908;2022-12-07T00:03:56;42.60;;;20.80;;
48835;SDS011;62581;47.342;7.908;2022-12-07T00:06:31;38.15;;;20.20;;
48835;SDS011;62581;47.342;7.908;2022-12-07T00:08:58;39.17;;;20.30;;
48835;SDS011;62581;47.342;7.908;2022-12-07T00:11:25;38.08;;;20.58;;
48835;SDS011;62581;47.342;7.908;2022-12-07T00:13:53;42.67;;;22.42;;
48835;SDS011;62581;47.342;7.908;2022-12-07T00:18:50;41.78;;;20.95;;
48835;SDS011;62581;47.342;7.908;2022-12-07T00:21:18;47.17;;;21.55;;
48835;SDS011;62581;47.342;7.908;2022-12-07T00:23:48;40.95;;;20.90;;
48835;SDS011;62581;47.342;7.908;2022-12-07T00:26:17;38.40;;;20.35;;
48835;SDS011;62581;47.342;7.908;2022-12-07T00:28:45;40.05;;;21.10;;
48835;SDS011;62581;47.342;7.908;2022-12-07T00:31:13;40.83;;;21.90;;
48835;SDS011;62581;47.342;7.908;2022-12-07T00:33:42;41.20;;;22.13;;
48835;SDS011;62581;47.342;7.908;2022-12-07T00:36:10;38.00;;;21.55;;
48835;SDS011;62581;47.342;7.908;2022-12-07T00:38:38;38.17;;;19.25;;
48835;SDS011;62581;47.342;7.908;2022-12-07T00:41:08;36.58;;;20.58;;
48835;SDS011;62581;47.342;7.908;2022-12-07T00:43:37;34.38;;;19.10;;
48835;SDS011;62581;47.342;7.908;2022-12-07T00:46:04;36.38;;;19.98;;
48835;SDS011;62581;47.342;7.908;2022-12-07T00:48:32;37.75;;;19.73;;
48835;SDS011;62581;47.342;7.908;2022-12-07T00:50:59;36.05;;;20.27;;
48835;SDS011;62581;47.342;7.908;2022-12-07T00:53:26;35.88;;;20.13;;
48835;SDS011;62581;47.342;7.908;2022-12-07T00:55:53;44.88;;;21.60;;
48835;SDS011;62581;47.342;7.908;2022-12-07T00:58:22;40.33;;;21.25;;
48835;SDS011;62581;47.342;7.908;2022-12-07T01:00:49;34.20;;;19.35;;
48835;SDS011;62581;47.342;7.908;2022-12-07T01:03:17;47.00;;;22.33;;
48835;SDS011;62581;47.342;7.908;2022-12-07T01:05:50;39.72;;;21.27;;
48835;SDS011;62581;47.342;7.908;2022-12-07T01:08:18;44.25;;;22.42;;
48835;SDS011;62581;47.342;7.908;2022-12-07T01:10:45;42.08;;;21.23;;
48835;SDS011;62581;47.342;7.908;2022-12-07T01:13:13;39.92;;;20.73;;
48835;SDS011;62581;47.342;7.908;2022-12-07T01:15:41;38.83;;;20.98;;
48835;SDS011;62581;47.342;7.908;2022-12-07T01:18:10;43.03;;;20.73;;
48835;SDS011;62581;47.342;7.908;2022-12-07T01:20:37;38.83;;;20.63;;
48835;SDS011;62581;47.342;7.908;2022-12-07T01:23:04;39.20;;;20.83;;
48835;SDS011;62581;47.342;7.908;2022-12-07T01:25:31;39.60;;;20.92;;
48835;SDS011;62581;47.342;7.908;2022-12-07T01:27:58;42.75;;;21.10;;
48835;SDS011;62581;47.342;7.908;2022-12-07T01:30:25;39.00;;;21.17;;
48835;SDS011;62581;47.342;7.908;2022-12-07T01:32:53;36.20;;;20.83;;
48835;SDS011;62581;47.342;7.908;2022-12-07T01:35:21;37.75;;;20.10;;
48835;SDS011;62581;47.342;7.908;2022-12-07T01:37:48;39.42;;;21.23;;
48835;SDS011;62581;47.342;7.908;2022-12-07T01:40:15;39.65;;;20.08;;
48835;SDS011;62581;47.342;7.908;2022-12-07T01:42:42;40.78;;;21.15;;
48835;SDS011;62581;47.342;7.908;2022-12-07T01:48:11;42.42;;;20.77;;
48835;SDS011;62581;47.342;7.908;2022-12-07T01:50:41;42.58;;;22.23;;
48835;SDS011;62581;47.342;7.908;2022-12-07T01:53:09;40.72;;;22.60;;
48835;SDS011;62581;47.342;7.908;2022-12-07T01:55:39;41.83;;;21.33;;
48835;SDS011;62581;47.342;7.908;2022-12-07T01:58:07;42.88;;;21.80;;
48835;SDS011;62581;47.342;7.908;2022-12-07T02:00:35;42.28;;;20.27;;
48835;SDS011;62581;47.342;7.908;2022-12-07T02:03:04;44.03;;;23.00;;
48835;SDS011;62581;47.342;7.908;2022-12-07T02:05:35;47.00;;;23.42;;
48835;SDS011;62581;47.342;7.908;2022-12-07T02:08:04;45.97;;;23.83;;
48835;SDS011;62581;47.342;7.908;2022-12-07T02:10:32;46.55;;;23.42;;
48835;SDS011;62581;47.342;7.908;2022-12-07T02:13:00;46.45;;;24.42;;
48835;SDS011;62581;47.342;7.908;2022-12-07T02:15:34;48.70;;;23.17;;
48835;SDS011;62581;47.342;7.908;2022-12-07T02:18:13;44.28;;;22.77;;
48835;SDS011;62581;47.342;7.908;2022-12-07T02:20:48;45.00;;;24.48;;
48835;SDS011;62581;47.342;7.908;2022-12-07T02:26:48;44.92;;;23.00;;
48835;SDS011;62581;47.342;7.908;2022-12-07T02:29:38;47.05;;;23.83;;
48835;SDS011;62581;47.342;7.908;2022-12-07T02:32:12;46.08;;;22.92;;
48835;SDS011;62581;47.342;7.908;2022-12-07T02:34:47;47.60;;;24.02;;
48835;SDS011;62581;47.342;7.908;2022-12-07T02:37:19;46.40;;;24.27;;
48835;SDS011;62581;47.342;7.908;2022-12-07T02:39:55;51.58;;;24.85;;
48835;SDS011;62581;47.342;7.908;2022-12-07T02:42:26;47.47;;;24.92;;
48835;SDS011;62581;47.342;7.908;2022-12-07T02:44:58;48.75;;;24.27;;
48835;SDS011;62581;47.342;7.908;2022-12-07T02:47:26;40.97;;;22.73;;
48835;SDS011;62581;47.342;7.908;2022-12-07T02:49:55;48.00;;;23.90;;
48835;SDS011;62581;47.342;7.908;2022-12-07T02:52:23;42.30;;;21.60;;
48835;SDS011;62581;47.342;7.908;2022-12-07T02:54:49;45.17;;;24.00;;
48835;SDS011;62581;47.342;7.908;2022-12-07T02:57:25;45.13;;;22.50;;
48835;SDS011;62581;47.342;7.908;2022-12-07T03:00:05;43.85;;;22.50;;
48835;SDS011;62581;47.342;7.908;2022-12-07T03:02:42;46.05;;;24.17;;
48835;SDS011;62581;47.342;7.908;2022-12-07T03:05:23;45.05;;;23.15;;
48835;SDS011;62581;47.342;7.908;2022-12-07T03:08:04;42.58;;;21.13;;
48835;SDS011;62581;47.342;7.908;2022-12-07T03:10:40;42.80;;;21.13;;
48835;SDS011;62581;47.342;7.908;2022-12-07T03:13:19;41.17;;;22.08;;
48835;SDS011;62581;47.342;7.908;2022-12-07T03:15:53;44.53;;;22.33;;
48835;SDS011;62581;47.342;7.908;2022-12-07T03:18:25;39.90;;;20.17;;
48835;SDS011;62581;47.342;7.908;2022-12-07T03:20:58;44.20;;;20.60;;
48835;SDS011;62581;47.342;7.908;2022-12-07T03:23:28;43.58;;;20.90;;
48835;SDS011;62581;47.342;7.908;2022-12-07T03:25:59;39.20;;;21.45;;
48835;SDS011;62581;47.342;7.908;2022-12-07T03:30:59;41.13;;;20.58;;
48835;SDS011;62581;47.342;7.908;2022-12-07T03:33:31;48.17;;;23.55;;
48835;SDS011;62581;47.342;7.908;2022-12-07T03:36:04;49.97;;;24.90;;
48835;SDS011;62581;47.342;7.908;2022-12-07T03:38:36;47.25;;;23.13;;
48835;SDS011;62581;47.342;7.908;2022-12-07T03:41:07;46.72;;;24.73;;
48835;SDS011;62581;47.342;7.908;2022-12-07T03:43:36;46.47;;;23.75;;
48835;SDS011;62581;47.342;7.908;2022-12-07T03:46:08;47.30;;;23.48;;
48835;SDS011;62581;47.342;7.908;2022-12-07T03:48:46;45.42;;;23.17;;
48835;SDS011;62581;47.342;7.908;2022-12-07T03:51:20;43.65;;;22.55;;
48835;SDS011;62581;47.342;7.908;2022-12-07T03:53:51;46.05;;;23.55;;
48835;SDS011;62581;47.342;7.908;2022-12-07T03:56:23;47.42;;;23.10;;
48835;SDS011;62581;47.342;7.908;2022-12-07T03:58:51;47.00;;;21.33;;
48835;SDS011;62581;47.342;7.908;2022-12-07T04:01:22;40.85;;;21.40;;
48835;SDS011;62581;47.342;7.908;2022-12-07T04:03:49;45.17;;;22.45;;
48835;SDS011;62581;47.342;7.908;2022-12-07T04:06:16;46.13;;;22.23;;
48835;SDS011;62581;47.342;7.908;2022-12-07T04:08:43;47.50;;;21.83;;
48835;SDS011;62581;47.342;7.908;2022-12-07T04:11:10;44.78;;;21.85;;
48835;SDS011;62581;47.342;7.908;2022-12-07T04:13:37;45.58;;;21.08;;
48835;SDS011;62581;47.342;7.908;2022-12-07T04:16:18;45.47;;;23.23;;
48835;SDS011;62581;47.342;7.908;2022-12-07T04:18:46;44.53;;;23.02;;
48835;SDS011;62581;47.342;7.908;2022-12-07T04:21:13;46.67;;;23.33;;
48835;SDS011;62581;47.342;7.908;2022-12-07T04:23:40;48.88;;;23.33;;
48835;SDS011;62581;47.342;7.908;2022-12-07T04:26:07;46.13;;;22.98;;
48835;SDS011;62581;47.342;7.908;2022-12-07T04:28:34;47.83;;;23.52;;
48835;SDS011;62581;47.342;7.908;2022-12-07T04:31:01;49.67;;;24.88;;
48835;SDS011;62581;47.342;7.908;2022-12-07T04:33:28;52.92;;;24.70;;
48835;SDS011;62581;47.342;7.908;2022-12-07T04:35:56;49.30;;;22.45;;
48835;SDS011;62581;47.342;7.908;2022-12-07T04:38:23;58.63;;;26.58;;
48835;SDS011;62581;47.342;7.908;2022-12-07T04:40:50;46.50;;;22.95;;
48835;SDS011;62581;47.342;7.908;2022-12-07T04:43:17;44.63;;;23.77;;
48835;SDS011;62581;47.342;7.908;2022-12-07T04:45:45;60.88;;;25.00;;
48835;SDS011;62581;47.342;7.908;2022-12-07T04:48:13;48.50;;;25.00;;
48835;SDS011;62581;47.342;7.908;2022-12-07T04:50:40;50.97;;;25.15;;
48835;SDS011;62581;47.342;7.908;2022-12-07T04:53:08;45.78;;;22.90;;
48835;SDS011;62581;47.342;7.908;2022-12-07T04:55:35;55.33;;;24.60;;
48835;SDS011;62581;47.342;7.908;2022-12-07T04:58:02;52.95;;;25.27;;
48835;SDS011;62581;47.342;7.908;2022-12-07T05:00:29;48.80;;;25.50;;
48835;SDS011;62581;47.342;7.908;2022-12-07T05:02:56;61.45;;;27.00;;
48835;SDS011;62581;47.342;7.908;2022-12-07T05:05:23;60.03;;;26.40;;
48835;SDS011;62581;47.342;7.908;2022-12-07T05:07:50;59.05;;;25.95;;
48835;SDS011;62581;47.342;7.908;2022-12-07T05:10:19;55.47;;;26.67;;
48835;SDS011;62581;47.342;7.908;2022-12-07T05:12:46;56.00;;;25.65;;
48835;SDS011;62581;47.342;7.908;2022-12-07T05:15:13;49.33;;;24.15;;
48835;SDS011;62581;47.342;7.908;2022-12-07T05:17:41;56.38;;;27.90;;
48835;SDS011;62581;47.342;7.908;2022-12-07T05:20:08;55.45;;;26.17;;
48835;SDS011;62581;47.342;7.908;2022-12-07T05:22:36;59.75;;;26.52;;
48835;SDS011;62581;47.342;7.908;2022-12-07T05:25:03;56.13;;;27.00;;
48835;SDS011;62581;47.342;7.908;2022-12-07T05:27:32;59.42;;;27.40;;
48835;SDS011;62581;47.342;7.908;2022-12-07T05:29:59;61.95;;;27.77;;
48835;SDS011;62581;47.342;7.908;2022-12-07T05:32:26;54.05;;;25.60;;
48835;SDS011;62581;47.342;7.908;2022-12-07T05:34:53;58.42;;;26.02;;
48835;SDS011;62581;47.342;7.908;2022-12-07T05:37:21;55.40;;;25.88;;
48835;SDS011;62581;47.342;7.908;2022-12-07T05:39:48;56.53;;;27.17;;
48835;SDS011;62581;47.342;7.908;2022-12-07T05:42:15;51.85;;;25.77;;
48835;SDS011;62581;47.342;7.908;2022-12-07T05:44:44;51.33;;;26.35;;
48835;SDS011;62581;47.342;7.908;2022-12-07T05:47:12;52.65;;;25.75;;
48835;SDS011;62581;47.342;7.908;2022-12-07T05:49:41;52.22;;;25.40;;
48835;SDS011;62581;47.342;7.908;2022-12-07T05:52:08;53.35;;;26.05;;
48835;SDS011;62581;47.342;7.908;2022-12-07T05:54:35;54.72;;;26.17;;
48835;SDS011;62581;47.342;7.908;2022-12-07T05:57:02;49.38;;;24.90;;
48835;SDS011;62581;47.342;7.908;2022-12-07T05:59:29;57.03;;;26.55;;
48835;SDS011;62581;47.342;7.908;2022-12-07T06:01:56;49.00;;;24.38;;
48835;SDS011;62581;47.342;7.908;2022-12-07T06:04:25;45.72;;;23.80;;
48835;SDS011;62581;47.342;7.908;2022-12-07T06:06:54;45.88;;;23.35;;
48835;SDS011;62581;47.342;7.908;2022-12-07T06:09:21;47.63;;;24.05;;
48835;SDS011;62581;47.342;7.908;2022-12-07T06:14:34;43.65;;;22.35;;
48835;SDS011;62581;47.342;7.908;2022-12-07T06:17:02;48.83;;;23.70;;
48835;SDS011;62581;47.342;7.908;2022-12-07T06:19:29;45.75;;;23.27;;
48835;SDS011;62581;47.342;7.908;2022-12-07T06:21:57;41.17;;;22.30;;
48835;SDS011;62581;47.342;7.908;2022-12-07T06:24:24;44.28;;;21.63;;
48835;SDS011;62581;47.342;7.908;2022-12-07T06:26:51;47.53;;;24.15;;
48835;SDS011;62581;47.342;7.908;2022-12-07T06:29:19;49.50;;;24.35;;
48835;SDS011;62581;47.342;7.908;2022-12-07T06:31:47;49.90;;;23.65;;
48835;SDS011;62581;47.342;7.908;2022-12-07T06:34:16;46.13;;;23.17;;
48835;SDS011;62581;47.342;7.908;2022-12-07T06:36:45;46.28;;;23.40;;
48835;SDS011;62581;47.342;7.908;2022-12-07T06:39:16;46.10;;;22.77;;
48835;SDS011;62581;47.342;7.908;2022-12-07T06:41:45;45.35;;;23.98;;
48835;SDS011;62581;47.342;7.908;2022-12-07T06:44:12;50.67;;;25.15;;
48835;SDS011;62581;47.342;7.908;2022-12-07T06:46:39;49.40;;;24.52;;
48835;SDS011;62581;47.342;7.908;2022-12-07T06:49:06;49.15;;;24.30;;
48835;SDS011;62581;47.342;7.908;2022-12-07T06:51:35;53.03;;;25.25;;
48835;SDS011;62581;47.342;7.908;2022-12-07T06:54:06;49.15;;;24.10;;
48835;SDS011;62581;47.342;7.908;2022-12-07T06:56:33;45.85;;;24.08;;
48835;SDS011;62581;47.342;7.908;2022-12-07T06:59:00;47.75;;;23.92;;
48835;SDS011;62581;47.342;7.908;2022-12-07T07:01:27;54.33;;;24.23;;
48835;SDS011;62581;47.342;7.908;2022-12-07T07:03:54;49.50;;;25.33;;
48835;SDS011;62581;47.342;7.908;2022-12-07T07:06:21;47.83;;;23.52;;
48835;SDS011;62581;47.342;7.908;2022-12-07T07:08:50;48.22;;;23.55;;
48835;SDS011;62581;47.342;7.908;2022-12-07T07:11:17;48.05;;;24.15;;
48835;SDS011;62581;47.342;7.908;2022-12-07T07:13:44;51.30;;;24.88;;
48835;SDS011;62581;47.342;7.908;2022-12-07T07:16:11;51.88;;;25.50;;
48835;SDS011;62581;47.342;7.908;2022-12-07T07:18:38;47.35;;;24.20;;
48835;SDS011;62581;47.342;7.908;2022-12-07T07:21:05;46.70;;;24.00;;
48835;SDS011;62581;47.342;7.908;2022-12-07T07:23:32;50.17;;;24.08;;
48835;SDS011;62581;47.342;7.908;2022-12-07T07:26:01;54.70;;;25.35;;
48835;SDS011;62581;47.342;7.908;2022-12-07T07:28:28;47.65;;;23.90;;
48835;SDS011;62581;47.342;7.908;2022-12-07T07:30:55;48.92;;;23.92;;
48835;SDS011;62581;47.342;7.908;2022-12-07T07:33:22;43.22;;;23.55;;
48835;SDS011;62581;47.342;7.908;2022-12-07T07:35:49;48.88;;;24.13;;
48835;SDS011;62581;47.342;7.908;2022-12-07T07:38:16;50.30;;;24.60;;
48835;SDS011;62581;47.342;7.908;2022-12-07T07:40:43;46.60;;;23.25;;
48835;SDS011;62581;47.342;7.908;2022-12-07T07:43:11;42.95;;;23.08;;
48835;SDS011;62581;47.342;7.908;2022-12-07T07:45:38;47.30;;;24.52;;
48835;SDS011;62581;47.342;7.908;2022-12-07T07:48:05;47.63;;;24.48;;
48835;SDS011;62581;47.342;7.908;2022-12-07T07:50:32;45.20;;;22.60;;
48835;SDS011;62581;47.342;7.908;2022-12-07T07:52:59;44.75;;;23.08;;
48835;SDS011;62581;47.342;7.908;2022-12-07T07:55:26;48.33;;;23.27;;
48835;SDS011;62581;47.342;7.908;2022-12-07T07:57:53;47.83;;;22.30;;
48835;SDS011;62581;47.342;7.908;2022-12-07T08:00:22;48.70;;;22.95;;
48835;SDS011;62581;47.342;7.908;2022-12-07T08:02:50;47.10;;;23.00;;
48835;SDS011;62581;47.342;7.908;2022-12-07T08:05:17;44.75;;;22.35;;
48835;SDS011;62581;47.342;7.908;2022-12-07T08:07:44;44.17;;;22.42;;
48835;SDS011;62581;47.342;7.908;2022-12-07T08:10:12;46.78;;;24.95;;
48835;SDS011;62581;47.342;7.908;2022-12-07T08:12:40;43.63;;;22.80;;
48835;SDS011;62581;47.342;7.908;2022-12-07T08:15:23;44.35;;;22.02;;
48835;SDS011;62581;47.342;7.908;2022-12-07T08:17:51;48.55;;;23.20;;
48835;SDS011;62581;47.342;7.908;2022-12-07T08:20:18;49.45;;;23.95;;
48835;SDS011;62581;47.342;7.908;2022-12-07T08:22:45;47.30;;;24.17;;
48835;SDS011;62581;47.342;7.908;2022-12-07T08:25:12;43.40;;;23.23;;
48835;SDS011;62581;47.342;7.908;2022-12-07T08:27:39;45.75;;;23.20;;
48835;SDS011;62581;47.342;7.908;2022-12-07T08:30:07;48.97;;;23.70;;
48835;SDS011;62581;47.342;7.908;2022-12-07T08:32:36;59.40;;;25.63;;
48835;SDS011;62581;47.342;7.908;2022-12-07T08:37:30;47.65;;;22.85;;
48835;SDS011;62581;47.342;7.908;2022-12-07T08:39:58;44.15;;;24.10;;
48835;SDS011;62581;47.342;7.908;2022-12-07T08:42:25;46.75;;;23.75;;
48835;SDS011;62581;47.342;7.908;2022-12-07T08:44:55;46.47;;;23.67;;
48835;SDS011;62581;47.342;7.908;2022-12-07T08:47:23;46.25;;;23.85;;
48835;SDS011;62581;47.342;7.908;2022-12-07T08:49:52;48.13;;;24.08;;
48835;SDS011;62581;47.342;7.908;2022-12-07T08:52:20;47.60;;;23.90;;
48835;SDS011;62581;47.342;7.908;2022-12-07T08:54:47;50.45;;;23.52;;
48835;SDS011;62581;47.342;7.908;2022-12-07T08:57:15;42.33;;;22.45;;
48835;SDS011;62581;47.342;7.908;2022-12-07T08:59:42;45.35;;;24.73;;
48835;SDS011;62581;47.342;7.908;2022-12-07T09:02:09;44.17;;;22.73;;
48835;SDS011;62581;47.342;7.908;2022-12-07T09:04:36;52.55;;;26.05;;
48835;SDS011;62581;47.342;7.908;2022-12-07T09:07:05;47.92;;;23.50;;
48835;SDS011;62581;47.342;7.908;2022-12-07T09:09:32;48.53;;;24.05;;
48835;SDS011;62581;47.342;7.908;2022-12-07T09:11:59;45.33;;;23.05;;
48835;SDS011;62581;47.342;7.908;2022-12-07T09:14:26;49.20;;;23.48;;
48835;SDS011;62581;47.342;7.908;2022-12-07T09:16:53;47.97;;;25.27;;
48835;SDS011;62581;47.342;7.908;2022-12-07T09:19:20;46.58;;;23.15;;
48835;SDS011;62581;47.342;7.908;2022-12-07T09:21:47;46.58;;;23.92;;
48835;SDS011;62581;47.342;7.908;2022-12-07T09:24:15;45.75;;;24.27;;
48835;SDS011;62581;47.342;7.908;2022-12-07T09:26:42;42.75;;;22.95;;
48835;SDS011;62581;47.342;7.908;2022-12-07T09:29:09;41.83;;;22.88;;
48835;SDS011;62581;47.342;7.908;2022-12-07T09:31:36;49.85;;;25.00;;
48835;SDS011;62581;47.342;7.908;2022-12-07T09:34:03;52.10;;;24.13;;
48835;SDS011;62581;47.342;7.908;2022-12-07T09:36:31;46.97;;;24.63;;
48835;SDS011;62581;47.342;7.908;2022-12-07T09:38:58;41.63;;;22.25;;
48835;SDS011;62581;47.342;7.908;2022-12-07T09:41:26;43.35;;;23.13;;
48835;SDS011;62581;47.342;7.908;2022-12-07T09:43:58;41.53;;;22.35;;
48835;SDS011;62581;47.342;7.908;2022-12-07T09:46:30;44.13;;;23.35;;
48835;SDS011;62581;47.342;7.908;2022-12-07T09:49:02;40.35;;;21.95;;
48835;SDS011;62581;47.342;7.908;2022-12-07T09:51:30;44.27;;;22.00;;
48835;SDS011;62581;47.342;7.908;2022-12-07T09:54:00;38.85;;;20.83;;
48835;SDS011;62581;47.342;7.908;2022-12-07T09:56:30;40.13;;;21.08;;
48835;SDS011;62581;47.342;7.908;2022-12-07T09:58:58;45.35;;;22.70;;
48835;SDS011;62581;47.342;7.908;2022-12-07T10:01:28;44.85;;;21.92;;
48835;SDS011;62581;47.342;7.908;2022-12-07T10:04:00;41.92;;;21.67;;
48835;SDS011;62581;47.342;7.908;2022-12-07T10:06:35;42.58;;;21.88;;
48835;SDS011;62581;47.342;7.908;2022-12-07T10:09:07;40.25;;;21.35;;
48835;SDS011;62581;47.342;7.908;2022-12-07T10:14:30;42.17;;;21.42;;
48835;SDS011;62581;47.342;7.908;2022-12-07T10:17:01;43.85;;;23.08;;
48835;SDS011;62581;47.342;7.908;2022-12-07T10:19:29;41.08;;;21.52;;
48835;SDS011;62581;47.342;7.908;2022-12-07T10:22:02;37.78;;;20.77;;
48835;SDS011;62581;47.342;7.908;2022-12-07T10:24:41;46.90;;;21.90;;
48835;SDS011;62581;47.342;7.908;2022-12-07T10:27:18;44.70;;;21.23;;
48835;SDS011;62581;47.342;7.908;2022-12-07T10:29:47;46.90;;;22.88;;
48835;SDS011;62581;47.342;7.908;2022-12-07T10:32:30;41.17;;;21.35;;
48835;SDS011;62581;47.342;7.908;2022-12-07T10:35:18;42.65;;;22.88;;
48835;SDS011;62581;47.342;7.908;2022-12-07T10:37:50;41.50;;;22.73;;
48835;SDS011;62581;47.342;7.908;2022-12-07T10:40:26;44.25;;;22.27;;
48835;SDS011;62581;47.342;7.908;2022-12-07T10:43:04;41.85;;;22.92;;
48835;SDS011;62581;47.342;7.908;2022-12-07T10:45:41;42.72;;;22.15;;
48835;SDS011;62581;47.342;7.908;2022-12-07T10:48:28;44.53;;;22.42;;
48835;SDS011;62581;47.342;7.908;2022-12-07T10:51:03;41.92;;;21.70;;
48835;SDS011;62581;47.342;7.908;2022-12-07T10:53:39;39.25;;;22.13;;
48835;SDS011;62581;47.342;7.908;2022-12-07T10:56:27;43.83;;;22.35;;
48835;SDS011;62581;47.342;7.908;2022-12-07T10:59:21;39.17;;;20.50;;
48835;SDS011;62581;47.342;7.908;2022-12-07T11:02:06;43.25;;;22.88;;
48835;SDS011;62581;47.342;7.908;2022-12-07T11:04:49;42.45;;;22.05;;
48835;SDS011;62581;47.342;7.908;2022-12-07T11:07:29;40.40;;;21.83;;
48835;SDS011;62581;47.342;7.908;2022-12-07T11:10:05;41.47;;;22.48;;
48835;SDS011;62581;47.342;7.908;2022-12-07T11:12:43;45.05;;;22.15;;
48835;SDS011;62581;47.342;7.908;2022-12-07T11:15:24;41.50;;;22.27;;
48835;SDS011;62581;47.342;7.908;2022-12-07T11:17:56;43.38;;;23.52;;
48835;SDS011;62581;47.342;7.908;2022-12-07T11:20:34;46.08;;;22.85;;
48835;SDS011;62581;47.342;7.908;2022-12-07T11:23:12;39.60;;;21.90;;
48835;SDS011;62581;47.342;7.908;2022-12-07T11:25:47;42.10;;;22.08;;
48835;SDS011;62581;47.342;7.908;2022-12-07T11:28:23;40.17;;;21.48;;
48835;SDS011;62581;47.342;7.908;2022-12-07T11:31:03;43.70;;;23.33;;
48835;SDS011;62581;47.342;7.908;2022-12-07T11:33:40;42.08;;;21.23;;
48835;SDS011;62581;47.342;7.908;2022-12-07T11:36:16;39.38;;;21.40;;
48835;SDS011;62581;47.342;7.908;2022-12-07T11:38:57;35.95;;;20.73;;
48835;SDS011;62581;47.342;7.908;2022-12-07T11:41:28;42.42;;;21.65;;
48835;SDS011;62581;47.342;7.908;2022-12-07T11:44:00;39.97;;;20.75;;
48835;SDS011;62581;47.342;7.908;2022-12-07T11:46:36;44.28;;;23.65;;
48835;SDS011;62581;47.342;7.908;2022-12-07T11:49:12;38.47;;;21.17;;
48835;SDS011;62581;47.342;7.908;2022-12-07T11:51:45;42.15;;;22.00;;
48835;SDS011;62581;47.342;7.908;2022-12-07T11:54:18;39.90;;;21.70;;
48835;SDS011;62581;47.342;7.908;2022-12-07T11:56:50;42.72;;;22.45;;
48835;SDS011;62581;47.342;7.908;2022-12-07T11:59:22;36.85;;;20.98;;
48835;SDS011;62581;47.342;7.908;2022-12-07T12:01:56;40.92;;;20.92;;
48835;SDS011;62581;47.342;7.908;2022-12-07T12:04:29;37.20;;;21.48;;
48835;SDS011;62581;47.342;7.908;2022-12-07T12:07:00;36.00;;;19.85;;
48835;SDS011;62581;47.342;7.908;2022-12-07T12:09:29;35.03;;;20.65;;
48835;SDS011;62581;47.342;7.908;2022-12-07T12:12:13;41.03;;;21.30;;
48835;SDS011;62581;47.342;7.908;2022-12-07T12:15:00;38.45;;;21.08;;
48835;SDS011;62581;47.342;7.908;2022-12-07T12:17:46;41.33;;;21.23;;
48835;SDS011;62581;47.342;7.908;2022-12-07T12:20:26;42.13;;;23.27;;
48835;SDS011;62581;47.342;7.908;2022-12-07T12:22:58;34.60;;;19.35;;
48835;SDS011;62581;47.342;7.908;2022-12-07T12:25:35;35.35;;;19.80;;
48835;SDS011;62581;47.342;7.908;2022-12-07T12:28:15;36.85;;;19.98;;
48835;SDS011;62581;47.342;7.908;2022-12-07T12:33:32;38.83;;;21.42;;
48835;SDS011;62581;47.342;7.908;2022-12-07T12:41:52;38.67;;;20.13;;
48835;SDS011;62581;47.342;7.908;2022-12-07T12:44:39;34.78;;;20.55;;
48835;SDS011;62581;47.342;7.908;2022-12-07T12:50:20;32.35;;;18.25;;
48835;SDS011;62581;47.342;7.908;2022-12-07T12:52:56;34.15;;;19.15;;
48835;SDS011;62581;47.342;7.908;2022-12-07T12:58:40;32.20;;;18.58;;
48835;SDS011;62581;47.342;7.908;2022-12-07T13:01:36;41.58;;;21.30;;
48835;SDS011;62581;47.342;7.908;2022-12-07T13:04:24;36.45;;;19.35;;
48835;SDS011;62581;47.342;7.908;2022-12-07T13:07:11;36.30;;;19.80;;
48835;SDS011;62581;47.342;7.908;2022-12-07T13:09:42;41.15;;;21.52;;
48835;SDS011;62581;47.342;7.908;2022-12-07T13:12:12;36.28;;;20.27;;
48835;SDS011;62581;47.342;7.908;2022-12-07T13:20:45;36.03;;;19.58;;
48835;SDS011;62581;47.342;7.908;2022-12-07T13:23:18;33.67;;;18.98;;
48835;SDS011;62581;47.342;7.908;2022-12-07T13:25:49;33.35;;;18.63;;
48835;SDS011;62581;47.342;7.908;2022-12-07T13:28:20;33.17;;;18.05;;
48835;SDS011;62581;47.342;7.908;2022-12-07T13:30:58;32.55;;;17.85;;
48835;SDS011;62581;47.342;7.908;2022-12-07T13:33:35;28.40;;;16.35;;
48835;SDS011;62581;47.342;7.908;2022-12-07T13:36:02;29.52;;;15.35;;
48835;SDS011;62581;47.342;7.908;2022-12-07T13:38:32;27.63;;;14.88;;
48835;SDS011;62581;47.342;7.908;2022-12-07T13:41:11;27.15;;;15.77;;
48835;SDS011;62581;47.342;7.908;2022-12-07T13:43:44;29.08;;;16.60;;
48835;SDS011;62581;47.342;7.908;2022-12-07T13:46:12;35.45;;;17.42;;
48835;SDS011;62581;47.342;7.908;2022-12-07T13:48:44;27.20;;;16.48;;
48835;SDS011;62581;47.342;7.908;2022-12-07T13:51:20;27.90;;;15.75;;
48835;SDS011;62581;47.342;7.908;2022-12-07T13:53:50;26.05;;;15.15;;
48835;SDS011;62581;47.342;7.908;2022-12-07T13:56:20;28.55;;;16.58;;
48835;SDS011;62581;47.342;7.908;2022-12-07T13:58:52;31.30;;;15.90;;
48835;SDS011;62581;47.342;7.908;2022-12-07T14:01:19;33.03;;;16.23;;
48835;SDS011;62581;47.342;7.908;2022-12-07T14:03:46;27.08;;;15.07;;
48835;SDS011;62581;47.342;7.908;2022-12-07T14:06:14;30.27;;;16.80;;
48835;SDS011;62581;47.342;7.908;2022-12-07T14:08:45;33.35;;;17.00;;
48835;SDS011;62581;47.342;7.908;2022-12-07T14:11:15;28.60;;;16.52;;
48835;SDS011;62581;47.342;7.908;2022-12-07T14:13:51;28.48;;;16.27;;
48835;SDS011;62581;47.342;7.908;2022-12-07T14:16:25;28.70;;;16.40;;
48835;SDS011;62581;47.342;7.908;2022-12-07T14:18:54;28.20;;;14.95;;
48835;SDS011;62581;47.342;7.908;2022-12-07T14:21:22;26.40;;;15.50;;
48835;SDS011;62581;47.342;7.908;2022-12-07T14:26:45;26.38;;;15.70;;
48835;SDS011;62581;47.342;7.908;2022-12-07T14:29:29;28.92;;;15.65;;
48835;SDS011;62581;47.342;7.908;2022-12-07T14:32:17;26.33;;;15.68;;
48835;SDS011;62581;47.342;7.908;2022-12-07T14:34:57;25.75;;;15.38;;
48835;SDS011;62581;47.342;7.908;2022-12-07T14:37:26;25.05;;;14.38;;
48835;SDS011;62581;47.342;7.908;2022-12-07T14:39:54;29.90;;;16.70;;
48835;SDS011;62581;47.342;7.908;2022-12-07T14:42:24;26.02;;;15.35;;
48835;SDS011;62581;47.342;7.908;2022-12-07T14:44:55;28.40;;;15.25;;
48835;SDS011;62581;47.342;7.908;2022-12-07T14:47:22;26.10;;;15.13;;
48835;SDS011;62581;47.342;7.908;2022-12-07T14:49:50;27.88;;;14.85;;
48835;SDS011;62581;47.342;7.908;2022-12-07T14:52:18;31.48;;;17.33;;
48835;SDS011;62581;47.342;7.908;2022-12-07T14:54:48;25.65;;;14.60;;
48835;SDS011;62581;47.342;7.908;2022-12-07T14:57:15;26.75;;;15.02;;
48835;SDS011;62581;47.342;7.908;2022-12-07T14:59:43;27.42;;;15.02;;
48835;SDS011;62581;47.342;7.908;2022-12-07T15:02:11;28.23;;;15.38;;
48835;SDS011;62581;47.342;7.908;2022-12-07T15:04:39;27.45;;;15.68;;
48835;SDS011;62581;47.342;7.908;2022-12-07T15:07:09;28.60;;;15.05;;
48835;SDS011;62581;47.342;7.908;2022-12-07T15:09:41;30.20;;;16.52;;
48835;SDS011;62581;47.342;7.908;2022-12-07T15:12:08;29.08;;;16.50;;
48835;SDS011;62581;47.342;7.908;2022-12-07T15:14:35;29.45;;;15.30;;
48835;SDS011;62581;47.342;7.908;2022-12-07T15:17:03;30.27;;;16.17;;
48835;SDS011;62581;47.342;7.908;2022-12-07T15:19:30;26.30;;;14.35;;
48835;SDS011;62581;47.342;7.908;2022-12-07T15:21:57;29.90;;;16.30;;
48835;SDS011;62581;47.342;7.908;2022-12-07T15:24:25;27.23;;;15.52;;